createdAt,value
2022-11-15T00:00:40.938Z,34.13
2022-11-15T00:03:28.670Z,30.80
2022-11-15T00:06:14.797Z,35.70
2022-11-15T00:09:01.354Z,34.63
2022-11-15T00:11:47.439Z,32.58
2022-11-15T00:14:33.267Z,29.60
2022-11-15T00:17:19.153Z,31.58
2022-11-15T00:20:05.444Z,30.95
2022-11-15T00:22:51.147Z,31.13
2022-11-15T00:25:36.970Z,34.88
2022-11-15T00:31:12.958Z,29.90
2022-11-15T00:33:58.955Z,32.13
2022-11-15T00:36:44.732Z,31.05
2022-11-15T00:39:30.352Z,29.70
2022-11-15T00:42:16.168Z,27.25
2022-11-15T00:45:02.172Z,28.05
2022-11-15T00:47:48.285Z,29.70
2022-11-15T00:53:19.699Z,31.80
2022-11-15T00:56:05.699Z,31.90
2022-11-15T00:58:51.888Z,29.98
2022-11-15T01:01:37.717Z,28.48
2022-11-15T01:04:23.590Z,29.02
2022-11-15T01:07:09.349Z,28.33
2022-11-15T01:09:55.789Z,27.17
2022-11-15T01:15:27.496Z,30.83
2022-11-15T01:18:22.904Z,26.50
2022-11-15T01:21:15.163Z,27.13
2022-11-15T01:24:00.912Z,25.08
2022-11-15T01:26:46.822Z,27.05
2022-11-15T01:29:32.693Z,24.58
2022-11-15T01:32:18.879Z,27.20
2022-11-15T01:35:05.419Z,24.40
2022-11-15T01:37:51.476Z,25.90
2022-11-15T01:43:29.869Z,28.65
2022-11-15T01:46:36.917Z,25.70
2022-11-15T01:52:15.374Z,26.42
2022-11-15T01:55:07.332Z,26.73
2022-11-15T01:57:58.411Z,26.92
2022-11-15T02:00:44.394Z,20.55
2022-11-15T02:03:39.221Z,22.35
2022-11-15T02:06:25.755Z,23.85
2022-11-15T02:09:12.644Z,26.88
2022-11-15T02:12:00.594Z,22.63
2022-11-15T02:14:53.008Z,21.60
2022-11-15T02:18:19.212Z,24.42
2022-11-15T02:21:16.984Z,24.60
2022-11-15T02:24:28.742Z,24.80
2022-11-15T02:27:45.164Z,22.58
2022-11-15T02:30:48.974Z,28.03
2022-11-15T02:33:53.237Z,22.33
2022-11-15T02:37:01.740Z,20.92
2022-11-15T02:39:58.796Z,19.60
2022-11-15T02:43:12.828Z,19.55
2022-11-15T02:46:45.517Z,22.98
2022-11-15T02:49:35.771Z,19.33
2022-11-15T02:52:24.368Z,19.98
2022-11-15T02:55:40.201Z,21.73
2022-11-15T02:58:36.716Z,19.30
2022-11-15T03:04:14.341Z,22.02
2022-11-15T03:07:08.837Z,22.10
2022-11-15T03:10:06.785Z,24.80
2022-11-15T03:12:56.540Z,25.80
2022-11-15T03:16:06.393Z,25.65
2022-11-15T03:18:57.847Z,24.88
2022-11-15T03:21:45.195Z,24.35
2022-11-15T03:24:34.678Z,24.52
2022-11-15T03:27:24.572Z,25.45
2022-11-15T03:30:12.272Z,26.00
2022-11-15T03:33:01.364Z,25.50
2022-11-15T03:35:49.587Z,23.65
2022-11-15T03:38:36.661Z,26.77
2022-11-15T03:41:29.234Z,24.75
2022-11-15T03:44:21.195Z,27.60
2022-11-15T03:47:12.530Z,23.05
2022-11-15T03:50:03.132Z,24.85
2022-11-15T03:52:50.821Z,24.73
2022-11-15T03:55:36.811Z,24.13
2022-11-15T03:58:22.481Z,24.73
2022-11-15T04:01:08.501Z,24.95
2022-11-15T04:03:54.374Z,23.50
2022-11-15T04:06:40.107Z,22.63
2022-11-15T04:09:25.773Z,26.08
2022-11-15T04:12:11.472Z,23.80
2022-11-15T04:15:09.444Z,23.55
2022-11-15T04:17:57.807Z,24.80
2022-11-15T04:21:01.886Z,23.02
2022-11-15T04:24:06.441Z,24.48
2022-11-15T04:26:52.843Z,18.90
2022-11-15T04:29:39.036Z,19.85
2022-11-15T04:32:25.203Z,20.33
2022-11-15T04:35:11.048Z,18.30
2022-11-15T04:37:57.552Z,18.67
2022-11-15T04:40:43.281Z,20.08
2022-11-15T04:43:29.628Z,20.30
2022-11-15T04:46:15.624Z,19.17
2022-11-15T04:49:01.330Z,19.85
2022-11-15T04:51:47.263Z,20.48
2022-11-15T04:54:33.265Z,20.65
2022-11-15T05:00:07.040Z,21.80
2022-11-15T05:03:11.901Z,19.08
2022-11-15T05:05:59.208Z,19.90
2022-11-15T05:08:45.347Z,20.10
2022-11-15T05:11:31.599Z,17.52
2022-11-15T05:14:17.870Z,16.02
2022-11-15T05:17:03.950Z,19.15
2022-11-15T05:22:35.555Z,19.75
2022-11-15T05:25:21.492Z,17.80
2022-11-15T05:28:07.310Z,17.52
2022-11-15T05:33:42.337Z,16.05
2022-11-15T05:36:30.677Z,24.08
2022-11-15T05:39:17.002Z,47.70
2022-11-15T05:42:17.097Z,51.80
2022-11-15T05:45:06.756Z,32.63
2022-11-15T05:47:54.788Z,48.72
2022-11-15T05:50:46.614Z,34.70
2022-11-15T05:53:40.968Z,33.10
2022-11-15T05:56:46.357Z,62.35
2022-11-15T05:59:34.212Z,58.20
2022-11-15T06:02:20.181Z,73.97
2022-11-15T06:05:06.411Z,52.15
2022-11-15T06:07:52.498Z,49.55
2022-11-15T06:13:24.385Z,56.08
2022-11-15T06:18:56.110Z,41.28
2022-11-15T06:21:42.055Z,51.90
2022-11-15T06:24:27.869Z,30.58
2022-11-15T06:27:13.756Z,39.58
2022-11-15T06:32:45.717Z,42.43
2022-11-15T06:35:34.801Z,44.72
2022-11-15T06:38:20.696Z,27.13
2022-11-15T06:43:53.914Z,34.92
2022-11-15T06:46:39.727Z,50.53
2022-11-15T06:49:25.600Z,57.83
2022-11-15T06:52:11.730Z,50.17
2022-11-15T06:54:57.530Z,44.40
2022-11-15T06:57:51.147Z,42.85
2022-11-15T07:00:37.216Z,31.60
2022-11-15T07:03:23.401Z,50.95
2022-11-15T07:06:10.661Z,52.00
2022-11-15T07:08:56.685Z,49.78
2022-11-15T07:11:42.501Z,37.28
2022-11-15T07:14:28.238Z,42.88
2022-11-15T07:17:14.183Z,31.90
2022-11-15T07:22:46.429Z,36.25
2022-11-15T07:25:32.757Z,54.90
2022-11-15T07:28:18.847Z,36.25
2022-11-15T07:31:07.051Z,31.98
2022-11-15T07:33:53.230Z,53.53
2022-11-15T07:36:39.120Z,41.75
2022-11-15T07:42:29.937Z,44.88
2022-11-15T07:45:15.936Z,53.22
2022-11-15T07:50:47.403Z,43.47
2022-11-15T07:53:34.179Z,31.77
2022-11-15T07:56:21.728Z,27.52
2022-11-15T07:59:07.643Z,25.95
2022-11-15T08:01:53.447Z,28.65
2022-11-15T08:04:39.693Z,23.17
2022-11-15T08:07:25.537Z,27.08
2022-11-15T08:10:12.974Z,24.23
2022-11-15T08:13:00.767Z,26.65
2022-11-15T08:15:46.633Z,25.15
2022-11-15T08:18:32.546Z,23.92
2022-11-15T08:24:06.582Z,25.10
2022-11-15T08:26:52.378Z,22.95
2022-11-15T08:29:38.230Z,24.00
2022-11-15T08:35:11.059Z,22.60
2022-11-15T08:37:57.218Z,24.77
2022-11-15T08:40:43.160Z,27.20
2022-11-15T08:43:29.574Z,28.65
2022-11-15T08:46:16.361Z,24.23
2022-11-15T08:49:02.493Z,29.23
2022-11-15T08:51:48.429Z,26.25
2022-11-15T08:54:34.344Z,29.15
2022-11-15T08:57:19.958Z,28.45
2022-11-15T09:00:06.258Z,26.38
2022-11-15T09:02:51.983Z,26.17
2022-11-15T09:05:38.887Z,23.58
2022-11-15T09:08:46.454Z,23.38
2022-11-15T09:11:32.079Z,25.38
2022-11-15T09:14:18.228Z,23.10
2022-11-15T09:17:04.922Z,22.80
2022-11-15T09:19:50.950Z,21.75
2022-11-15T09:22:37.552Z,23.55
2022-11-15T09:25:23.724Z,22.98
2022-11-15T09:28:10.031Z,23.05
2022-11-15T09:31:00.849Z,22.45
2022-11-15T09:33:47.076Z,23.67
2022-11-15T09:36:33.375Z,21.58
2022-11-15T09:39:19.224Z,22.63
2022-11-15T09:42:07.012Z,26.63
2022-11-15T09:45:12.105Z,25.30
2022-11-15T09:48:13.792Z,24.48
2022-11-15T09:51:05.985Z,22.30
2022-11-15T09:54:30.358Z,25.13
2022-11-15T09:56:37.691Z,23.38
2022-11-15T09:59:07.851Z,25.33
2022-11-15T10:01:45.933Z,24.50
2022-11-15T10:04:14.971Z,22.40
2022-11-15T10:07:07.725Z,21.33
2022-11-15T10:10:03.165Z,22.50
2022-11-15T10:12:32.319Z,21.77
2022-11-15T10:15:15.272Z,22.80
2022-11-15T10:17:42.646Z,21.73
2022-11-15T10:20:16.436Z,23.67
2022-11-15T10:22:52.463Z,23.05
2022-11-15T10:25:28.987Z,21.67
2022-11-15T10:28:02.383Z,23.58
2022-11-15T10:30:51.792Z,21.38
2022-11-15T10:33:34.887Z,23.05
2022-11-15T10:36:09.868Z,23.67
2022-11-15T10:38:49.493Z,19.50
2022-11-15T10:41:20.004Z,21.55
2022-11-15T10:44:02.651Z,20.20
2022-11-15T10:46:46.115Z,20.67
2022-11-15T10:49:15.334Z,21.20
2022-11-15T10:52:17.914Z,21.25
2022-11-15T10:54:49.795Z,20.13
2022-11-15T10:57:20.197Z,23.27
2022-11-15T10:59:50.720Z,22.30
2022-11-15T11:02:38.307Z,22.30
2022-11-15T11:05:26.853Z,23.67
2022-11-15T11:08:23.129Z,22.90
2022-11-15T11:11:03.423Z,20.70
2022-11-15T11:13:35.567Z,21.83
2022-11-15T11:16:15.184Z,21.52
2022-11-15T11:19:10.431Z,25.13
2022-11-15T11:21:40.109Z,22.73
2022-11-15T11:24:15.924Z,22.65
2022-11-15T11:29:32.900Z,20.75
2022-11-15T11:32:17.868Z,21.80
2022-11-15T11:34:51.852Z,20.08
2022-11-15T11:37:28.653Z,20.85
2022-11-15T11:40:21.909Z,23.08
2022-11-15T11:42:59.942Z,24.23
2022-11-15T11:46:08.883Z,23.45
2022-11-15T11:48:51.279Z,20.17
2022-11-15T11:51:29.720Z,21.27
2022-11-15T11:54:22.048Z,19.58
2022-11-15T11:56:51.128Z,19.40
2022-11-15T11:59:29.716Z,19.52
2022-11-15T12:01:59.929Z,18.88
2022-11-15T12:04:41.157Z,19.92
2022-11-15T12:07:20.334Z,18.13
2022-11-15T12:09:52.802Z,18.27
2022-11-15T12:12:31.123Z,19.30
2022-11-15T12:15:20.506Z,18.65
2022-11-15T12:17:49.297Z,19.52
2022-11-15T12:20:23.899Z,18.05
2022-11-15T12:23:04.700Z,19.10
2022-11-15T12:25:58.559Z,18.63
2022-11-15T12:28:33.506Z,19.70
2022-11-15T12:31:17.408Z,20.85
2022-11-15T12:33:47.735Z,18.98
2022-11-15T12:36:24.004Z,19.63
2022-11-15T12:39:01.548Z,22.65
2022-11-15T12:41:31.264Z,18.48
2022-11-15T12:44:00.215Z,19.60
2022-11-15T12:46:30.360Z,21.58
2022-11-15T12:49:22.279Z,18.38
2022-11-15T12:51:49.677Z,19.27
2022-11-15T12:54:23.159Z,21.48
2022-11-15T12:57:08.398Z,24.17
2022-11-15T13:00:05.222Z,18.67
2022-11-15T13:02:36.816Z,23.40
2022-11-15T13:05:16.528Z,20.77
2022-11-15T13:07:43.918Z,20.92
2022-11-15T13:10:11.418Z,20.85
2022-11-15T13:12:41.545Z,21.45
2022-11-15T13:15:15.042Z,23.35
2022-11-15T13:17:48.863Z,20.38
2022-11-15T13:20:16.261Z,19.73
2022-11-15T13:22:52.411Z,23.42
2022-11-15T13:26:02.203Z,20.13
2022-11-15T13:28:47.190Z,21.90
2022-11-15T13:31:26.878Z,22.50
2022-11-15T13:33:58.248Z,21.33
2022-11-15T13:36:34.128Z,21.30
2022-11-15T13:39:07.713Z,21.58
2022-11-15T13:41:37.338Z,20.75
2022-11-15T13:44:05.382Z,22.17
2022-11-15T13:46:34.120Z,21.25
2022-11-15T13:49:28.377Z,20.67
2022-11-15T13:51:55.998Z,21.70
2022-11-15T13:54:25.977Z,23.75
2022-11-15T13:57:21.953Z,21.88
2022-11-15T13:59:55.785Z,20.95
2022-11-15T14:02:35.228Z,20.48
2022-11-15T14:05:17.228Z,21.30
2022-11-15T14:08:03.581Z,20.98
2022-11-15T14:10:37.233Z,18.90
2022-11-15T14:13:11.401Z,21.00
2022-11-15T14:15:40.895Z,22.65
2022-11-15T14:19:00.580Z,19.92
2022-11-15T14:21:28.131Z,19.27
2022-11-15T14:24:18.979Z,18.95
2022-11-15T14:26:46.824Z,18.15
2022-11-15T14:29:27.523Z,17.83
2022-11-15T14:32:07.905Z,21.20
2022-11-15T14:34:35.337Z,19.35
2022-11-15T14:37:02.718Z,21.77
2022-11-15T14:39:30.155Z,21.23
2022-11-15T14:41:57.519Z,22.60
2022-11-15T14:44:25.051Z,22.95
2022-11-15T14:46:52.552Z,22.02
2022-11-15T14:49:20.017Z,26.38
2022-11-15T14:51:47.528Z,26.98
2022-11-15T14:54:15.061Z,23.42
2022-11-15T14:56:43.656Z,23.55
2022-11-15T14:59:11.073Z,21.77
2022-11-15T15:01:38.601Z,21.05
2022-11-15T15:04:06.107Z,21.80
2022-11-15T15:06:33.587Z,20.42
2022-11-15T15:09:01.012Z,20.77
2022-11-15T15:11:30.978Z,22.80
2022-11-15T15:14:01.971Z,20.63
2022-11-15T15:16:29.416Z,22.98
2022-11-15T15:18:56.918Z,21.08
2022-11-15T15:21:28.889Z,24.38
2022-11-15T15:23:59.974Z,23.42
2022-11-15T15:26:27.559Z,22.92
2022-11-15T15:28:55.172Z,22.20
2022-11-15T15:31:22.751Z,21.70
2022-11-15T15:33:50.237Z,23.73
2022-11-15T15:36:19.727Z,22.20
2022-11-15T15:38:47.871Z,23.98
2022-11-15T15:41:16.903Z,22.08
2022-11-15T15:43:48.863Z,25.17
2022-11-15T15:46:18.306Z,25.77
2022-11-15T15:48:46.806Z,22.75
2022-11-15T15:51:20.193Z,22.40
2022-11-15T15:53:51.416Z,22.15
2022-11-15T15:56:19.055Z,21.63
2022-11-15T15:58:56.522Z,21.65
2022-11-15T16:01:26.627Z,22.05
2022-11-15T16:03:59.341Z,20.77
2022-11-15T16:06:41.533Z,23.52
2022-11-15T16:09:54.719Z,22.77
2022-11-15T16:12:30.695Z,24.33
2022-11-15T16:14:58.962Z,23.02
2022-11-15T16:17:33.910Z,22.55
2022-11-15T16:20:17.751Z,22.40
2022-11-15T16:23:08.764Z,27.73
2022-11-15T16:25:55.748Z,26.67
2022-11-15T16:28:31.361Z,30.08
2022-11-15T16:31:10.115Z,28.45
2022-11-15T16:33:41.222Z,27.33
2022-11-15T16:36:36.023Z,29.95
2022-11-15T16:39:06.696Z,27.00
2022-11-15T16:41:34.170Z,27.15
2022-11-15T16:44:03.001Z,26.48
2022-11-15T16:46:30.665Z,25.10
2022-11-15T16:48:59.372Z,24.15
2022-11-15T16:51:30.058Z,22.00
2022-11-15T16:53:57.949Z,26.60
2022-11-15T16:56:30.746Z,26.52
2022-11-15T16:59:02.015Z,24.67
2022-11-15T17:01:46.977Z,22.70
2022-11-15T17:04:16.493Z,22.83
2022-11-15T17:06:47.411Z,21.52
2022-11-15T17:09:25.528Z,23.95
2022-11-15T17:12:01.795Z,23.75
2022-11-15T17:14:29.972Z,23.08
2022-11-15T17:17:09.991Z,22.58
2022-11-15T17:19:37.784Z,22.50
2022-11-15T17:22:19.664Z,22.05
2022-11-15T17:24:53.506Z,23.45
2022-11-15T17:27:29.360Z,20.75
2022-11-15T17:29:57.082Z,23.40
2022-11-15T17:33:07.224Z,19.65
2022-11-15T17:36:00.812Z,21.55
2022-11-15T17:38:32.844Z,21.40
2022-11-15T17:41:16.321Z,23.88
2022-11-15T17:43:44.689Z,20.75
2022-11-15T17:46:20.516Z,22.30
2022-11-15T17:49:01.075Z,21.05
2022-11-15T17:51:44.983Z,20.75
2022-11-15T17:54:31.638Z,20.90
2022-11-15T17:57:04.112Z,21.60
2022-11-15T17:59:41.788Z,24.83
2022-11-15T18:02:21.787Z,22.73
2022-11-15T18:05:00.902Z,24.80
2022-11-15T18:07:59.071Z,25.05
2022-11-15T18:10:33.324Z,28.95
2022-11-15T18:13:01.191Z,26.98
2022-11-15T18:15:34.900Z,27.55
2022-11-15T18:18:05.193Z,25.65
2022-11-15T18:21:04.882Z,26.60
2022-11-15T18:23:45.913Z,28.15
2022-11-15T18:26:15.531Z,27.95
2022-11-15T18:28:45.662Z,32.15
2022-11-15T18:31:14.958Z,31.73
2022-11-15T18:33:43.258Z,32.10
2022-11-15T18:36:13.545Z,35.95
2022-11-15T18:38:41.417Z,33.35
2022-11-15T18:41:18.053Z,33.47
2022-11-15T18:43:45.586Z,35.13
2022-11-15T18:46:15.724Z,36.58
2022-11-15T18:48:44.944Z,35.42
2022-11-15T18:51:15.110Z,34.45
2022-11-15T18:53:44.023Z,33.00
2022-11-15T18:56:14.288Z,31.80
2022-11-15T18:58:44.509Z,30.58
2022-11-15T19:01:17.079Z,31.05
2022-11-15T19:03:46.823Z,28.65
2022-11-15T19:06:16.596Z,28.40
2022-11-15T19:08:46.186Z,29.05
2022-11-15T19:11:16.903Z,27.77
2022-11-15T19:13:48.561Z,24.88
2022-11-15T19:16:18.633Z,28.27
2022-11-15T19:18:46.207Z,24.42
2022-11-15T19:21:16.177Z,25.20
2022-11-15T19:23:43.886Z,24.48
2022-11-15T19:26:14.208Z,26.90
2022-11-15T19:28:43.398Z,26.27
2022-11-15T19:31:15.665Z,27.70
2022-11-15T19:33:45.173Z,28.02
2022-11-15T19:36:16.138Z,26.50
2022-11-15T19:38:44.137Z,26.48
2022-11-15T19:41:14.725Z,28.77
2022-11-15T19:43:42.974Z,26.48
2022-11-15T19:46:12.498Z,28.75
2022-11-15T19:48:40.328Z,27.35
2022-11-15T19:51:14.442Z,26.48
2022-11-15T19:53:42.811Z,28.48
2022-11-15T19:56:13.056Z,27.00
2022-11-15T19:58:41.509Z,26.70
2022-11-15T20:01:29.217Z,27.67
2022-11-15T20:04:00.114Z,30.13
2022-11-15T20:06:33.599Z,27.50
2022-11-15T20:09:01.470Z,29.48
2022-11-15T20:11:29.487Z,26.48
2022-11-15T20:14:02.342Z,25.25
2022-11-15T20:16:30.372Z,29.27
2022-11-15T20:18:59.758Z,26.45
2022-11-15T20:21:28.427Z,25.35
2022-11-15T20:23:56.641Z,27.55
2022-11-15T20:26:24.683Z,28.25
2022-11-15T20:28:53.247Z,26.77
2022-11-15T20:31:21.883Z,27.80
2022-11-15T20:33:49.726Z,29.73
2022-11-15T20:36:18.082Z,28.70
2022-11-15T20:38:51.104Z,30.23
2022-11-15T20:41:19.413Z,27.20
2022-11-15T20:43:48.231Z,28.30
2022-11-15T20:46:16.924Z,27.25
2022-11-15T20:48:45.789Z,27.95
2022-11-15T20:51:17.167Z,27.55
2022-11-15T20:53:47.785Z,26.30
2022-11-15T20:56:22.529Z,29.70
2022-11-15T20:58:51.653Z,28.83
2022-11-15T21:01:25.726Z,29.60
2022-11-15T21:03:57.958Z,28.10
2022-11-15T21:06:27.851Z,28.35
2022-11-15T21:09:15.763Z,26.10
2022-11-15T21:12:04.254Z,24.10
2022-11-15T21:14:33.204Z,26.63
2022-11-15T21:17:00.993Z,24.98
2022-11-15T21:19:35.671Z,26.02
2022-11-15T21:22:06.415Z,30.92
2022-11-15T21:24:34.855Z,31.33
2022-11-15T21:27:02.786Z,27.02
2022-11-15T21:29:37.920Z,25.70
2022-11-15T21:32:07.823Z,30.48
2022-11-15T21:34:36.254Z,31.08
2022-11-15T21:37:05.145Z,30.73
2022-11-15T21:39:33.097Z,27.23
2022-11-15T21:42:00.780Z,26.58
2022-11-15T21:44:28.728Z,25.55
2022-11-15T21:46:56.389Z,25.63
2022-11-15T21:49:24.241Z,30.20
2022-11-15T21:51:51.815Z,25.83
2022-11-15T21:54:19.375Z,26.63
2022-11-15T21:56:46.923Z,29.13
2022-11-15T21:59:15.671Z,25.77
2022-11-15T22:02:05.707Z,25.83
2022-11-15T22:04:35.970Z,41.67
2022-11-15T22:07:03.805Z,55.35
2022-11-15T22:09:31.549Z,60.50
2022-11-15T22:11:59.148Z,47.10
2022-11-15T22:14:27.550Z,30.92
2022-11-15T22:16:57.583Z,25.50
2022-11-15T22:19:25.298Z,23.35
2022-11-15T22:21:52.979Z,22.27
2022-11-15T22:24:21.669Z,20.15
2022-11-15T22:26:49.311Z,21.08
2022-11-15T22:29:16.922Z,24.88
2022-11-15T22:31:44.628Z,18.02
2022-11-15T22:34:12.324Z,19.80
2022-11-15T22:37:13.182Z,18.23
2022-11-15T22:39:35.881Z,18.17
2022-11-15T22:42:03.576Z,16.60
2022-11-15T22:44:31.234Z,17.75
2022-11-15T22:46:59.085Z,18.25
2022-11-15T22:49:26.827Z,18.45
2022-11-15T22:51:54.695Z,18.45
2022-11-15T22:54:22.486Z,19.20
2022-11-15T22:56:50.284Z,17.63
2022-11-15T22:59:17.915Z,19.73
2022-11-15T23:01:45.791Z,19.08
2022-11-15T23:04:13.459Z,20.02
2022-11-15T23:06:41.344Z,18.00
2022-11-15T23:09:10.105Z,17.98
2022-11-15T23:11:56.440Z,21.60
2022-11-15T23:14:24.405Z,17.98
2022-11-15T23:16:52.079Z,17.63
2022-11-15T23:19:19.769Z,17.58
2022-11-15T23:22:07.104Z,16.95
2022-11-15T23:24:34.973Z,16.80
2022-11-15T23:27:07.282Z,16.63
2022-11-15T23:29:55.287Z,18.45
2022-11-15T23:32:41.776Z,15.82
2022-11-15T23:35:09.791Z,17.48
2022-11-15T23:37:37.432Z,17.88
2022-11-15T23:40:05.727Z,18.52
2022-11-15T23:42:33.451Z,16.98
2022-11-15T23:45:01.115Z,18.50
2022-11-15T23:47:31.058Z,16.58
2022-11-15T23:49:58.704Z,16.83
2022-11-15T23:52:27.412Z,16.67
2022-11-15T23:54:55.377Z,16.40
2022-11-15T23:57:23.345Z,16.08
2022-11-15T23:59:51.192Z,16.65
